[Jeden Mittwoch | 1830z - 2130z | EDDM] München Mittwoch

Zu Eventkalender hinzugefügt: 587 Daten

Samy Greve

874505
RG München - Event
RG München - NAV
RG München - Mentor


München Mittwoch steht zum Bergfest der Woche an! Ab 1830 Z ist der Flughafen München wieder für mind. 3h für euch besetzt und freut sich auf jeglichen Besuch. Am Besten sucht ihr euch aber Flieger mit intensiven Lichtern aus, denn die Sicht wird heute Abend eher gering sein - wir wünschen viel Spaß!

EDDM 160500Z 1606/1712 08003KT 0500 FG BKN001 TEMPO 1606/1610 2000 BR BKN004 BECMG 1610/1613 5000 BR BKN006 PROB30 TEMPO 1613/1616 SCT006 BECMG 1616/1619 1200 BCFG BKN002 BECMG 1619/1621 0500 FG VV001 TEMPO 1701/1707 0300 FZFG BECMG 1709/1711 3500 BR BKN005
 

Samy Greve

874505
RG München - Event
RG München - NAV
RG München - Mentor


Es Weihnachtet in München mit Schnee und kalten Temperaturen? Eher nicht, denn davon sind wir weit weg. Was aber wie jeden Mittwoch kontinuierlich stattfindet, ist unser München Mittwoch! Ab 1830 Zulu sind wir wieder für mindestens 3 Stunden in München online und freuen uns auf euren Besuch!

EDDM 231620Z VRB02KT 9999 -RA NSC 09/08 Q1014 NOSIG
 

Samy Greve

874505
RG München - Event
RG München - NAV
RG München - Mentor


Am letzten Mittwoch des Jahres freuen wir uns nochmal auf einen München Mittwoch! Ab 1830Z ist der Airport EDDM wieder für mindestens 3 Stunden für euch voll besetzt und freut sich über jegliche Art von Verkehr! Das Wetter meint es ausnahmsweise mal gut mit München:

EDDM 301100Z 3012/3118 23004KT 9999 FEW025 SCT040 BECMG 3108/3110 11006KT BECMG 3116/3118 VRB02KT

Habt ihr noch keine Idee, wohin es gehen oder von wo die Reise starten soll anbei noch paar Routen für den Abend:

Leipzig:
EDDM-EDDP INPUD Y102 UPALA M726 LASGA T953 VOCIM T954 GOXLI
EDDP-EDDM GOLAT T202 ALOSO T703 LULAR T105 EXUSI

Wien:
EDDM-LOWW KIRDI DCT MEDEL DCT MASUR
LOWW-EDDM SOVIL DCT SITNI DCT BAGSI DCT MATIG DCT AMADI Q113 NAPSA

Düsseldorf:
EDDM-EDDL GIVMI Y101 INBED DCT REKDI DCT LOHRE Z850 ADEMI T854 DOMUX
EDDL-EDDM DODEN Y853 BOMBI T104 ANORA

Bis Heute Abend!
 
Zuletzt bearbeitet:

Samy Greve

874505
RG München - Event
RG München - NAV
RG München - Mentor


Es ist Mittwoch und heute steht einiges an:

1. Wir haben ab 1830Z natürlich wieder unseren München Mittwoch mit einer 1A Besetzung heute Abend
2. Wir haben heute ebenfalls ab 1830Z unseren monatlichen Shuttle mit den Kollegen aus Warschau -> eine super Rennstrecke mit kompletter ATC Abdeckung
3. Und zuguter letzt möchte @Tobias Thanner heute Abend euch sein Können während seines Towers CPT zeigen.
4. Schnee wird heute Abend auch noch erwartet, sodass wir eventuell noch bisschen mehr Herausforderungen am Airport haben.

Sucht euch doch einen Grund aus und dann sehen wir uns heute Abend? Bis dahin!

EDDM 060500Z 0606/0712 25006KT 3000 -SN BKN004 PROB30 TEMPO 0606/0609 1000 SN PROB30 TEMPO 0609/0624 6000 BKN010 BECMG 0700/0703 8000 BKN020
 
Oben